Time;durP1;ratioP1;P1;durP2;ratioP2;P2;SDS_P1;SDS_P2;PMS_P1;PMS_P2;Temp;Humidity;BMP_temperature;BMP_pressure;BME280_temperature;BME280_humidity;BME280_pressure;Samples;Min_cycle;Max_cycle;Signal;HPM_P1;HPM_P2
2024/01/12 06:17:27;;;;;;;;;8.00;7.00;;;;;;;;5116240;22;8866;-80
2024/01/12 06:19:52;;;;;;;;;12.00;8.67;;;;;;;;4992780;28;8814;-82
2024/01/12 06:22:17;;;;;;;;;12.33;8.00;;;;;;;;4994942;28;8795;-78
2024/01/12 06:24:43;;;;;;;;;14.00;8.00;;;;;;;;4994436;28;8972;-82
2024/01/12 06:27:08;;;;;;;;;11.00;9.33;;;;;;;;4975923;28;8810;-78
2024/01/12 06:29:34;;;;;;;;;8.67;7.00;;;;;;;;4976626;28;9578;-81
2024/01/12 06:32:00;;;;;;;;;8.67;7.00;;;;;;;;4993003;28;8948;-79
2024/01/12 06:34:25;;;;;;;;;10.67;10.67;;;;;;;;4992632;28;8822;-81
2024/01/12 06:36:50;;;;;;;;;10.00;8.00;;;;;;;;4992588;28;8795;-80
2024/01/12 06:39:16;;;;;;;;;7.67;7.67;;;;;;;;4992768;28;8798;-76
2024/01/12 06:41:42;;;;;;;;;14.67;11.00;;;;;;;;4993085;28;8806;-81
2024/01/12 06:44:07;;;;;;;;;11.00;11.00;;;;;;;;4993874;28;8833;-80
2024/01/12 06:46:35;;;;;;;;;11.00;9.00;;;;;;;;4994124;28;9027;-84
2024/01/12 06:49:00;;;;;;;;;11.00;9.67;;;;;;;;4992944;28;8795;-77
2024/01/12 06:51:25;;;;;;;;;15.00;12.00;;;;;;;;4991991;28;8807;-76
2024/01/12 06:53:51;;;;;;;;;15.33;11.00;;;;;;;;4996068;28;8810;-76
2024/01/12 06:56:20;;;;;;;;;12.00;8.33;;;;;;;;4992555;28;8929;-75
2024/01/12 06:58:45;;;;;;;;;11.33;11.33;;;;;;;;4994098;28;8783;-77
2024/01/12 07:01:10;;;;;;;;;14.00;12.00;;;;;;;;4992990;28;8917;-76
2024/01/12 07:03:35;;;;;;;;;14.00;12.00;;;;;;;;4991788;28;8832;-79
2024/01/12 07:06:01;;;;;;;;;14.00;11.00;;;;;;;;4992347;28;8803;-77
2024/01/12 07:08:26;;;;;;;;;10.33;9.00;;;;;;;;4992142;28;8837;-78
2024/01/12 07:10:51;;;;;;;;;8.67;8.00;;;;;;;;4992491;28;8829;-77
2024/01/12 07:13:16;;;;;;;;;9.67;9.67;;;;;;;;4992349;28;8852;-77
2024/01/12 07:15:42;;;;;;;;;8.33;8.33;;;;;;;;4992394;28;8964;-78
2024/01/12 07:18:07;;;;;;;;;8.67;7.33;;;;;;;;4974667;28;8931;-79
2024/01/12 07:20:32;;;;;;;;;12.00;11.00;;;;;;;;4991577;28;8912;-84
2024/01/12 07:22:57;;;;;;;;;8.67;8.67;;;;;;;;4992191;28;8829;-73
2024/01/12 07:25:23;;;;;;;;;4.25;4.00;;;;;;;;4976049;28;8839;-74
2024/01/12 07:27:48;;;;;;;;;10.50;8.00;;;;;;;;4991555;28;8826;-77
2024/01/12 07:30:13;;;;;;;;;10.75;9.25;;;;;;;;4989399;28;8815;-73
2024/01/12 07:32:39;;;;;;;;;11.00;9.00;;;;;;;;4991652;28;8806;-74
2024/01/12 07:35:04;;;;;;;;;13.25;10.00;;;;;;;;4991442;28;8936;-74
2024/01/12 07:37:29;;;;;;;;;15.00;12.25;;;;;;;;4991933;28;8810;-74
2024/01/12 07:39:55;;;;;;;;;10.00;9.75;;;;;;;;4974254;28;8814;-73
2024/01/12 07:42:20;;;;;;;;;13.25;12.00;;;;;;;;4990274;28;8833;-74
2024/01/12 07:44:47;;;;;;;;;7.25;7.00;;;;;;;;4991886;28;8842;-75
2024/01/12 07:47:12;;;;;;;;;13.75;12.75;;;;;;;;4973975;28;8844;-75
2024/01/12 07:49:37;;;;;;;;;8.50;8.00;;;;;;;;4991028;28;11518;-77
2024/01/12 07:52:03;;;;;;;;;6.50;6.50;;;;;;;;4991538;28;8775;-80
2024/01/12 07:54:28;;;;;;;;;5.00;5.00;;;;;;;;4991831;28;8858;-80
2024/01/12 07:56:54;;;;;;;;;2.75;2.00;;;;;;;;4993958;28;8813;-77
2024/01/12 07:59:19;;;;;;;;;4.00;1.25;;;;;;;;4991539;28;8890;-81
2024/01/12 08:01:45;;;;;;;;;2.00;2.00;;;;;;;;4991403;28;8798;-81
2024/01/12 08:04:10;;;;;;;;;2.25;2.25;;;;;;;;4991119;28;8852;-81
2024/01/12 08:06:35;;;;;;;;;3.00;1.75;;;;;;;;4991372;28;8824;-75
2024/01/12 08:09:01;;;;;;;;;6.00;3.00;;;;;;;;4991006;28;8817;-79
2024/01/12 08:11:26;;;;;;;;;3.25;3.00;;;;;;;;4991097;28;8806;-76
2024/01/12 08:13:52;;;;;;;;;2.00;2.00;;;;;;;;4991289;28;8913;-75
2024/01/12 08:16:18;;;;;;;;;13.00;13.00;;;;;;;;4992234;28;8782;-76
2024/01/12 08:18:46;;;;;;;;;15.50;14.00;;;;;;;;4994423;28;8817;-73
2024/01/12 08:21:11;;;;;;;;;14.75;14.25;;;;;;;;4994661;28;8810;-76
2024/01/12 08:23:36;;;;;;;;;14.25;11.00;;;;;;;;4994880;28;11761;-77
2024/01/12 08:26:02;;;;;;;;;14.00;12.00;;;;;;;;4978180;28;8912;-76
2024/01/12 08:28:27;;;;;;;;;10.00;9.75;;;;;;;;4993119;28;8830;-77
2024/01/12 08:30:53;;;;;;;;;16.75;13.00;;;;;;;;4994932;28;8794;-77
2024/01/12 08:33:18;;;;;;;;;13.25;13.25;;;;;;;;4994588;28;8818;-78
2024/01/12 08:35:43;;;;;;;;;17.33;14.00;;;;;;;;4994414;28;8915;-79
2024/01/12 08:38:08;;;;;;;;;17.67;13.67;;;;;;;;4995030;28;8829;-76
2024/01/12 08:40:34;;;;;;;;;13.00;13.00;;;;;;;;4993191;28;8853;-74
2024/01/12 08:43:01;;;;;;;;;14.25;13.50;;;;;;;;4994608;28;8810;-80
2024/01/12 08:45:26;;;;;;;;;13.33;12.00;;;;;;;;4994640;28;8822;-86
2024/01/12 08:47:51;;;;;;;;;15.00;14.00;;;;;;;;4994629;28;12294;-84
2024/01/12 08:50:17;;;;;;;;;12.75;10.00;;;;;;;;4993918;28;8852;-80
2024/01/12 08:52:42;;;;;;;;;18.00;16.00;;;;;;;;4994664;28;8806;-84
2024/01/12 08:55:09;;;;;;;;;13.67;13.67;;;;;;;;4976906;28;9646;-87
2024/01/12 08:57:35;;;;;;;;;21.00;13.67;;;;;;;;4994497;28;8798;-84
2024/01/12 09:00:01;;;;;;;;;16.33;16.00;;;;;;;;4994343;28;11569;-84
2024/01/12 09:02:26;;;;;;;;;14.00;11.33;;;;;;;;4993978;28;11705;-86
2024/01/12 09:04:52;;;;;;;;;13.00;13.00;;;;;;;;4994130;28;8961;-84
2024/01/12 09:07:17;;;;;;;;;14.33;13.33;;;;;;;;4994404;28;8826;-82
2024/01/12 09:09:42;;;;;;;;;15.33;13.00;;;;;;;;4994359;28;8840;-82
2024/01/12 09:12:07;;;;;;;;;13.50;13.50;;;;;;;;4994231;28;8826;-82
2024/01/12 09:14:34;;;;;;;;;16.67;14.00;;;;;;;;4977010;28;8850;-83
2024/01/12 09:17:00;;;;;;;;;15.00;13.67;;;;;;;;4994222;28;8937;-85
2024/01/12 09:19:25;;;;;;;;;15.33;15.33;;;;;;;;4993452;28;11679;-82
2024/01/12 09:21:50;;;;;;;;;19.33;16.67;;;;;;;;4994288;28;8818;-77
2024/01/12 09:24:15;;;;;;;;;16.67;13.33;;;;;;;;4993462;28;8823;-82
2024/01/12 11:38:11;;;;;;;;;3.25;2.25;;;;;;;;5086368;28;13441;-75
2024/01/12 11:40:37;;;;;;;;;3.00;2.00;;;;;;;;5086640;28;9574;-75
2024/01/12 11:43:02;;;;;;;;;2.00;2.00;;;;;;;;5088197;28;8783;-76
2024/01/12 11:45:28;;;;;;;;;2.67;2.00;;;;;;;;5087508;28;8891;-76
2024/01/12 11:47:54;;;;;;;;;2.33;2.33;;;;;;;;5087887;28;8787;-77
2024/01/12 11:50:19;;;;;;;;;2.00;2.00;;;;;;;;5086986;28;8830;-77
2024/01/12 11:52:54;;;;;;;;;4.00;2.33;;;;;;;;5088780;28;8810;-77
2024/01/12 11:55:20;;;;;;;;;3.00;2.50;;;;;;;;5088759;28;8930;-77
2024/01/12 11:57:45;;;;;;;;;2.00;2.00;;;;;;;;5088123;28;8932;-77
2024/01/12 12:00:11;;;;;;;;;5.00;4.00;;;;;;;;5069551;28;8848;-75
2024/01/12 12:02:36;;;;;;;;;2.00;2.00;;;;;;;;5087500;28;8807;-75
2024/01/12 12:05:09;;;;;;;;;2.75;2.00;;;;;;;;5102611;28;8914;-75
2024/01/12 12:07:38;;;;;;;;;1.00;1.00;;;;;;;;5109633;28;8826;-78
2024/01/12 12:10:05;;;;;;;;;2.00;2.00;;;;;;;;5107631;28;9859;-73
2024/01/12 12:12:30;;;;;;;;;2.00;2.00;;;;;;;;5109508;28;10087;-75
2024/01/12 12:14:56;;;;;;;;;3.00;2.00;;;;;;;;5101990;28;10828;-74
2024/01/12 12:17:24;;;;;;;;;2.00;2.00;;;;;;;;5107726;28;8938;-74
2024/01/12 12:19:49;;;;;;;;;1.00;1.00;;;;;;;;5094945;28;10343;-73
2024/01/12 12:22:15;;;;;;;;;1.00;1.00;;;;;;;;5087136;28;10376;-72
2024/01/12 12:24:40;;;;;;;;;2.00;2.00;;;;;;;;5085910;28;8821;-73
2024/01/12 12:27:06;;;;;;;;;2.25;1.00;;;;;;;;5087012;28;8840;-72
2024/01/12 12:29:33;;;;;;;;;2.00;1.50;;;;;;;;5086982;28;9512;-72
2024/01/12 12:32:01;;;;;;;;;2.25;2.25;;;;;;;;5086725;28;8795;-72
2024/01/12 12:34:30;;;;;;;;;1.75;1.75;;;;;;;;5085697;28;10804;-76
2024/01/12 12:36:55;;;;;;;;;2.00;2.00;;;;;;;;5085185;28;10781;-74
2024/01/12 12:39:20;;;;;;;;;1.75;1.75;;;;;;;;5086850;28;10835;-73
2024/01/12 12:41:46;;;;;;;;;2.75;2.75;;;;;;;;5088396;28;8798;-72
2024/01/12 12:44:11;;;;;;;;;1.50;1.50;;;;;;;;5092399;28;8816;-72
2024/01/12 12:46:37;;;;;;;;;3.50;2.25;;;;;;;;5106673;28;8830;-72
2024/01/12 12:49:03;;;;;;;;;6.00;3.00;;;;;;;;5090374;28;8937;-74
2024/01/12 12:51:29;;;;;;;;;2.00;2.00;;;;;;;;5072825;28;8833;-71
2024/01/12 12:53:54;;;;;;;;;1.50;1.25;;;;;;;;5071760;28;11019;-72
2024/01/12 12:56:19;;;;;;;;;2.75;2.75;;;;;;;;5071556;28;8899;-71
2024/01/12 12:58:45;;;;;;;;;3.00;3.00;;;;;;;;5072804;28;8905;-73
2024/01/12 13:01:11;;;;;;;;;3.00;2.00;;;;;;;;5072513;28;8807;-73
2024/01/12 13:03:36;;;;;;;;;4.00;4.00;;;;;;;;5074858;28;8846;-72
2024/01/12 13:06:01;;;;;;;;;2.00;2.00;;;;;;;;5091220;28;8828;-72
2024/01/12 13:08:26;;;;;;;;;2.25;2.25;;;;;;;;5092589;28;8796;-72
2024/01/12 13:10:55;;;;;;;;;3.00;3.00;;;;;;;;5091598;28;8994;-73
2024/01/12 13:13:21;;;;;;;;;4.00;3.00;;;;;;;;5091193;28;8796;-74
2024/01/12 13:15:46;;;;;;;;;3.00;2.67;;;;;;;;5092110;28;11382;-73
2024/01/12 13:18:11;;;;;;;;;3.75;3.00;;;;;;;;5092678;28;8800;-73
2024/01/12 13:20:36;;;;;;;;;5.00;3.00;;;;;;;;5073673;28;8917;-73
2024/01/12 13:23:02;;;;;;;;;6.50;3.00;;;;;;;;5071160;28;8821;-72
2024/01/12 13:25:27;;;;;;;;;4.00;4.00;;;;;;;;5069986;28;9539;-72
2024/01/12 13:27:52;;;;;;;;;5.50;3.25;;;;;;;;5088747;28;8800;-72
2024/01/12 13:30:17;;;;;;;;;7.75;4.00;;;;;;;;5089729;28;8826;-72
2024/01/12 13:32:43;;;;;;;;;6.00;5.00;;;;;;;;5091515;28;8822;-72
2024/01/12 13:35:09;;;;;;;;;8.00;5.00;;;;;;;;5091497;28;8804;-72
2024/01/12 13:37:34;;;;;;;;;2.00;2.00;;;;;;;;5104404;28;8848;-73
2024/01/12 13:39:59;;;;;;;;;2.50;1.00;;;;;;;;5046301;27;10523;-73
2024/01/12 13:42:25;;;;;;;;;2.00;2.00;;;;;;;;4925613;28;12559;-73
2024/01/12 13:44:50;;;;;;;;;1.00;1.00;;;;;;;;5074857;28;8818;-73
2024/01/12 13:47:15;;;;;;;;;3.00;1.00;;;;;;;;5069311;28;8807;-73
2024/01/12 13:49:41;;;;;;;;;2.00;2.00;;;;;;;;5035032;28;10988;-75
2024/01/12 13:52:08;;;;;;;;;4.25;2.00;;;;;;;;5071200;28;8798;-73
2024/01/12 13:54:33;;;;;;;;;2.00;2.00;;;;;;;;5070975;28;11485;-72
2024/01/12 13:56:59;;;;;;;;;5.00;1.25;;;;;;;;5063685;28;13022;-73
2024/01/12 13:59:24;;;;;;;;;1.75;1.75;;;;;;;;5056872;28;8902;-73
2024/01/12 14:01:49;;;;;;;;;1.75;1.75;;;;;;;;5050976;28;9647;-73
2024/01/12 14:04:16;;;;;;;;;9.00;2.00;;;;;;;;5083931;28;8805;-74
2024/01/12 14:06:41;;;;;;;;;5.50;3.50;;;;;;;;5092641;27;8822;-75
2024/01/12 14:09:07;;;;;;;;;1.25;1.00;;;;;;;;5071651;28;11522;-80
2024/01/12 14:11:33;;;;;;;;;1.00;1.00;;;;;;;;5070055;28;8814;-75
2024/01/12 14:13:59;;;;;;;;;2.00;2.00;;;;;;;;5069971;28;8928;-75
2024/01/12 14:16:24;;;;;;;;;4.50;3.50;;;;;;;;5071022;28;11441;-76
2024/01/12 14:18:49;;;;;;;;;1.25;1.25;;;;;;;;5070878;28;8829;-74
2024/01/12 14:21:14;;;;;;;;;2.50;2.00;;;;;;;;5071127;28;8783;-74
2024/01/12 14:23:40;;;;;;;;;2.00;2.00;;;;;;;;5069842;28;8807;-75
2024/01/12 14:26:06;;;;;;;;;4.00;1.25;;;;;;;;5071091;28;8868;-78
2024/01/12 14:28:32;;;;;;;;;2.00;2.00;;;;;;;;5070937;28;8810;-70
2024/01/12 14:30:57;;;;;;;;;2.00;2.00;;;;;;;;5070775;28;11392;-71
2024/01/12 14:33:22;;;;;;;;;2.50;1.00;;;;;;;;5071285;28;8921;-70
2024/01/12 14:35:48;;;;;;;;;2.25;1.75;;;;;;;;5070553;28;8790;-71
2024/01/12 14:38:13;;;;;;;;;3.50;3.50;;;;;;;;5070683;28;8799;-70
2024/01/12 14:40:38;;;;;;;;;1.50;1.50;;;;;;;;5071015;28;8841;-68
2024/01/12 14:43:03;;;;;;;;;3.50;3.50;;;;;;;;5070992;28;8783;-69
2024/01/12 14:45:29;;;;;;;;;2.00;2.00;;;;;;;;5070658;28;8852;-70
2024/01/12 14:47:54;;;;;;;;;3.50;3.50;;;;;;;;5070706;28;8872;-74
2024/01/12 14:50:22;;;;;;;;;4.00;4.00;;;;;;;;5069102;28;8911;-73
2024/01/12 14:52:47;;;;;;;;;2.00;2.00;;;;;;;;5066377;28;8794;-73
2024/01/12 14:55:13;;;;;;;;;7.00;4.25;;;;;;;;5055310;28;11510;-76
2024/01/12 14:57:39;;;;;;;;;3.50;3.50;;;;;;;;5051079;28;8947;-74
2024/01/12 15:00:08;;;;;;;;;5.25;4.00;;;;;;;;5051007;28;8862;-76
2024/01/12 15:02:34;;;;;;;;;3.50;2.00;;;;;;;;5068229;28;11566;-78
2024/01/12 15:04:59;;;;;;;;;4.50;2.00;;;;;;;;5068513;28;11555;-80
2024/01/12 15:07:24;;;;;;;;;2.50;2.50;;;;;;;;5070618;28;8821;-77
2024/01/12 15:09:50;;;;;;;;;8.25;3.50;;;;;;;;5069624;28;8913;-76
2024/01/12 15:12:15;;;;;;;;;4.25;3.50;;;;;;;;5086213;28;9706;-81
2024/01/12 15:14:41;;;;;;;;;1.75;1.50;;;;;;;;5089088;28;8828;-76
2024/01/12 15:17:06;;;;;;;;;6.00;5.25;;;;;;;;5072260;28;8853;-76
2024/01/12 15:19:31;;;;;;;;;3.00;3.00;;;;;;;;5072550;28;8950;-76
2024/01/12 15:21:57;;;;;;;;;4.75;3.00;;;;;;;;5071364;28;8901;-79
2024/01/12 15:24:22;;;;;;;;;5.25;4.00;;;;;;;;5071334;28;8790;-78
2024/01/12 15:26:47;;;;;;;;;5.00;1.75;;;;;;;;5074011;28;9606;-77
2024/01/12 15:29:15;;;;;;;;;5.25;2.50;;;;;;;;5071207;28;8786;-75
2024/01/12 15:31:41;;;;;;;;;2.00;2.00;;;;;;;;5070581;28;8814;-82
2024/01/12 15:34:06;;;;;;;;;7.50;4.00;;;;;;;;5069201;28;11463;-77
2024/01/12 15:36:32;;;;;;;;;3.75;2.50;;;;;;;;5070384;28;8830;-79
2024/01/12 15:38:58;;;;;;;;;4.00;4.00;;;;;;;;5070718;28;8802;-80
2024/01/12 15:41:23;;;;;;;;;1.50;1.50;;;;;;;;5070208;28;8901;-80
2024/01/12 15:43:48;;;;;;;;;4.25;2.50;;;;;;;;5068635;28;8833;-80
2024/01/12 15:46:14;;;;;;;;;2.00;2.00;;;;;;;;5068863;28;8842;-82
2024/01/12 15:48:39;;;;;;;;;5.50;4.00;;;;;;;;5071784;28;8791;-77
2024/01/12 15:51:04;;;;;;;;;3.50;3.00;;;;;;;;5068847;28;8887;-75
2024/01/12 15:53:31;;;;;;;;;2.50;2.50;;;;;;;;5070405;28;8825;-76
2024/01/12 15:55:57;;;;;;;;;4.00;4.00;;;;;;;;5070395;28;8794;-75
2024/01/12 15:58:22;;;;;;;;;6.25;5.00;;;;;;;;5072370;28;11650;-75
2024/01/12 16:00:47;;;;;;;;;5.25;5.00;;;;;;;;5070161;28;8953;-80
2024/01/12 16:03:12;;;;;;;;;4.75;4.75;;;;;;;;5068715;28;8904;-76
2024/01/12 16:05:38;;;;;;;;;5.00;4.00;;;;;;;;5071752;28;8789;-75
2024/01/12 16:08:04;;;;;;;;;6.00;4.00;;;;;;;;5070378;28;9511;-76
2024/01/12 16:10:30;;;;;;;;;9.00;4.00;;;;;;;;5070486;28;8809;-78
2024/01/12 16:12:56;;;;;;;;;7.75;4.75;;;;;;;;5070093;28;11476;-76
2024/01/12 16:15:23;;;;;;;;;5.25;4.25;;;;;;;;5069347;28;8837;-76
2024/01/12 16:17:48;;;;;;;;;6.00;4.00;;;;;;;;5065544;28;8849;-75
2024/01/12 16:20:13;;;;;;;;;6.00;5.00;;;;;;;;5068752;28;12355;-85
2024/01/12 16:22:39;;;;;;;;;4.50;4.50;;;;;;;;5069884;28;8814;-79
2024/01/12 16:25:04;;;;;;;;;4.00;3.50;;;;;;;;5072602;28;8834;-78
2024/01/12 16:27:29;;;;;;;;;8.00;8.00;;;;;;;;5074569;28;8907;-78
2024/01/12 16:29:55;;;;;;;;;8.50;5.00;;;;;;;;5073518;28;8795;-78
2024/01/12 16:32:20;;;;;;;;;6.25;5.00;;;;;;;;5073661;28;8871;-79
2024/01/12 16:34:45;;;;;;;;;6.00;6.00;;;;;;;;5073535;28;8797;-80
2024/01/12 16:37:13;;;;;;;;;5.00;5.00;;;;;;;;5071855;28;8848;-78
2024/01/12 16:39:39;;;;;;;;;6.50;5.25;;;;;;;;5073651;28;8795;-77
2024/01/12 16:42:04;;;;;;;;;6.00;5.75;;;;;;;;5073662;28;11597;-75
2024/01/12 16:44:29;;;;;;;;;5.75;5.75;;;;;;;;5073406;28;8798;-77
2024/01/12 16:46:56;;;;;;;;;8.00;5.00;;;;;;;;5072217;28;8818;-74
2024/01/12 16:49:21;;;;;;;;;7.00;6.50;;;;;;;;5068526;28;8828;-74
2024/01/12 16:51:46;;;;;;;;;5.00;4.00;;;;;;;;5052980;28;11582;-73
2024/01/12 16:54:12;;;;;;;;;8.50;6.50;;;;;;;;5053453;28;9021;-74
2024/01/12 16:56:37;;;;;;;;;7.00;5.50;;;;;;;;5064215;28;8827;-73
2024/01/12 16:59:03;;;;;;;;;9.00;8.00;;;;;;;;5072954;28;8806;-73
2024/01/12 17:01:28;;;;;;;;;7.75;7.75;;;;;;;;5074105;28;9230;-72
2024/01/12 17:03:53;;;;;;;;;9.00;6.25;;;;;;;;5073643;28;8806;-79
2024/01/12 17:06:18;;;;;;;;;5.50;5.50;;;;;;;;5071747;28;9548;-76
2024/01/12 17:08:44;;;;;;;;;6.00;6.00;;;;;;;;5071547;28;8826;-81
2024/01/12 17:11:09;;;;;;;;;5.50;5.00;;;;;;;;5071636;28;8841;-77
2024/01/12 17:13:35;;;;;;;;;6.75;6.75;;;;;;;;5072749;28;8843;-75
2024/01/12 17:16:00;;;;;;;;;7.75;7.75;;;;;;;;5071841;28;8895;-77
2024/01/12 17:18:25;;;;;;;;;13.00;9.00;;;;;;;;5072531;28;9555;-78
2024/01/12 17:20:51;;;;;;;;;5.50;5.50;;;;;;;;5071326;28;8806;-76
2024/01/12 17:23:16;;;;;;;;;7.50;5.00;;;;;;;;5071234;28;8822;-77
2024/01/12 17:25:41;;;;;;;;;9.50;6.00;;;;;;;;5071351;28;8828;-76
2024/01/12 17:28:06;;;;;;;;;8.00;6.25;;;;;;;;5071833;28;8825;-73
2024/01/12 17:30:32;;;;;;;;;12.00;8.00;;;;;;;;5071408;28;8830;-73
2024/01/12 17:32:57;;;;;;;;;7.50;6.25;;;;;;;;5074850;28;8854;-74
2024/01/12 17:35:22;;;;;;;;;6.00;6.00;;;;;;;;5069629;28;8791;-73
2024/01/12 17:37:48;;;;;;;;;6.50;6.50;;;;;;;;5071719;28;9555;-76
2024/01/12 17:40:13;;;;;;;;;9.50;7.75;;;;;;;;5071436;28;8811;-74
2024/01/12 17:42:38;;;;;;;;;11.00;6.25;;;;;;;;5072419;28;8814;-74
2024/01/12 17:45:04;;;;;;;;;7.25;7.25;;;;;;;;5072062;28;8825;-79
2024/01/12 17:47:30;;;;;;;;;7.50;7.50;;;;;;;;5071137;28;9607;-75
2024/01/12 17:49:55;;;;;;;;;7.00;3.50;;;;;;;;5071021;28;8806;-80
2024/01/12 17:52:21;;;;;;;;;7.25;6.00;;;;;;;;5072414;28;8798;-82
2024/01/12 17:54:46;;;;;;;;;7.75;7.75;;;;;;;;5071136;28;8802;-82
2024/01/12 17:57:11;;;;;;;;;9.00;7.00;;;;;;;;5069755;28;8858;-84
2024/01/12 17:59:37;;;;;;;;;16.75;10.00;;;;;;;;5071493;28;9558;-80
2024/01/12 18:02:02;;;;;;;;;7.25;7.25;;;;;;;;5071898;28;8802;-78
2024/01/12 18:04:28;;;;;;;;;12.00;10.00;;;;;;;;5072444;28;8803;-78
2024/01/12 18:06:53;;;;;;;;;8.00;8.00;;;;;;;;5068892;28;8802;-80
2024/01/12 18:09:18;;;;;;;;;5.00;5.00;;;;;;;;5065316;28;8917;-80
2024/01/12 18:11:44;;;;;;;;;9.50;8.50;;;;;;;;5051950;28;8887;-80
2024/01/12 18:14:10;;;;;;;;;5.00;3.50;;;;;;;;5051587;28;8809;-78
2024/01/12 18:16:35;;;;;;;;;7.75;7.25;;;;;;;;5060191;28;8872;-76
2024/01/12 18:19:00;;;;;;;;;15.75;11.25;;;;;;;;5072203;28;12171;-79
2024/01/12 18:21:26;;;;;;;;;11.00;10.00;;;;;;;;5072177;28;8828;-78
2024/01/12 18:23:52;;;;;;;;;9.00;8.50;;;;;;;;5075017;28;8813;-82
2024/01/12 18:26:17;;;;;;;;;8.50;7.50;;;;;;;;5070411;28;8831;-86
2024/01/12 18:28:42;;;;;;;;;15.00;5.00;;;;;;;;5069691;28;8818;-82
2024/01/12 18:31:07;;;;;;;;;8.50;5.75;;;;;;;;5060034;28;8797;-79
2024/01/12 18:33:33;;;;;;;;;11.00;9.00;;;;;;;;5070689;28;8811;-81
2024/01/12 18:35:58;;;;;;;;;8.75;8.75;;;;;;;;5071443;28;9031;-81
2024/01/12 18:38:24;;;;;;;;;11.25;9.00;;;;;;;;5070934;28;8787;-79
2024/01/12 18:40:49;;;;;;;;;10.50;8.75;;;;;;;;5069956;28;8794;-82
2024/01/12 18:43:14;;;;;;;;;9.50;8.50;;;;;;;;5069046;28;8838;-81
2024/01/12 18:45:40;;;;;;;;;15.75;9.00;;;;;;;;5070972;28;8798;-79
2024/01/12 18:48:05;;;;;;;;;16.00;13.00;;;;;;;;5086279;28;8841;-82
2024/01/12 18:50:30;;;;;;;;;11.75;11.50;;;;;;;;5070847;28;8790;-77
2024/01/12 18:52:56;;;;;;;;;9.00;8.25;;;;;;;;5070772;28;8770;-78
2024/01/12 18:55:21;;;;;;;;;12.75;11.00;;;;;;;;5069955;28;8826;-77
2024/01/12 18:57:49;;;;;;;;;12.50;10.75;;;;;;;;5068717;28;8914;-77
2024/01/12 19:00:15;;;;;;;;;18.25;14.00;;;;;;;;5069568;28;8899;-77
2024/01/12 19:02:40;;;;;;;;;16.00;13.00;;;;;;;;5070851;28;12223;-77
2024/01/12 19:05:05;;;;;;;;;18.75;16.50;;;;;;;;5072264;28;8811;-78
2024/01/12 19:07:30;;;;;;;;;15.00;11.75;;;;;;;;5069309;28;8802;-76
2024/01/12 19:09:56;;;;;;;;;14.75;13.25;;;;;;;;5069723;28;8829;-80
2024/01/12 19:12:21;;;;;;;;;18.75;14.00;;;;;;;;5070707;28;8819;-78
2024/01/12 19:14:46;;;;;;;;;15.00;12.00;;;;;;;;5068558;28;8853;-78
2024/01/12 19:17:12;;;;;;;;;16.50;11.75;;;;;;;;5082996;28;8864;-83
2024/01/12 19:19:38;;;;;;;;;12.00;9.50;;;;;;;;5090756;28;8804;-77
2024/01/12 19:22:04;;;;;;;;;10.00;10.00;;;;;;;;5091190;28;8764;-79
2024/01/12 19:24:29;;;;;;;;;13.50;13.50;;;;;;;;5090307;28;11470;-76
2024/01/12 19:26:55;;;;;;;;;17.50;16.00;;;;;;;;5079205;28;11541;-82
2024/01/12 19:29:20;;;;;;;;;22.00;16.75;;;;;;;;5084152;28;8828;-77
2024/01/12 19:31:46;;;;;;;;;15.00;12.25;;;;;;;;5092879;28;8804;-77
2024/01/12 19:34:12;;;;;;;;;19.50;17.75;;;;;;;;5091859;28;8908;-77
2024/01/12 19:36:41;;;;;;;;;15.75;15.75;;;;;;;;5089271;28;8832;-84
2024/01/12 19:39:07;;;;;;;;;20.00;17.00;;;;;;;;5084714;28;8806;-80
2024/01/12 19:41:32;;;;;;;;;14.00;13.00;;;;;;;;5070834;28;11618;-80
2024/01/12 19:43:57;;;;;;;;;18.75;15.50;;;;;;;;5070143;28;8806;-83
2024/01/12 19:46:23;;;;;;;;;15.50;14.25;;;;;;;;5071797;28;8927;-82
2024/01/12 19:48:48;;;;;;;;;17.75;17.75;;;;;;;;5081310;28;8820;-78
2024/01/12 19:51:13;;;;;;;;;21.75;17.75;;;;;;;;5084254;28;8833;-83
2024/01/12 19:53:38;;;;;;;;;21.00;14.75;;;;;;;;5069106;28;8826;-83
2024/01/12 19:56:04;;;;;;;;;18.00;17.75;;;;;;;;5068837;28;8815;-83
2024/01/12 19:58:29;;;;;;;;;38.33;32.33;;;;;;;;5070538;28;8814;-81
2024/01/12 20:01:00;;;;;;;;;37.67;31.00;;;;;;;;5071963;28;8915;-81
2024/01/12 20:03:25;;;;;;;;;25.00;23.25;;;;;;;;5074007;28;8810;-81
2024/01/12 20:05:50;;;;;;;;;30.00;27.25;;;;;;;;5072720;28;11533;-80
2024/01/12 20:08:15;;;;;;;;;31.25;26.00;;;;;;;;5074863;28;8903;-81
2024/01/12 20:10:41;;;;;;;;;30.75;24.75;;;;;;;;5073900;28;8802;-80
2024/01/12 20:13:06;;;;;;;;;24.67;24.33;;;;;;;;5074226;28;8821;-86
2024/01/12 20:15:31;;;;;;;;;27.33;24.33;;;;;;;;5072149;28;8911;-82
2024/01/12 20:17:56;;;;;;;;;38.67;28.33;;;;;;;;5073883;28;8815;-80
2024/01/12 20:20:22;;;;;;;;;28.33;25.00;;;;;;;;5072955;28;8807;-85
2024/01/12 20:22:48;;;;;;;;;30.00;24.00;;;;;;;;5073172;28;8791;-76
2024/01/12 20:25:13;;;;;;;;;29.33;22.33;;;;;;;;5067106;28;8805;-80
2024/01/12 20:27:38;;;;;;;;;28.00;22.50;;;;;;;;5052337;28;11647;-84
2024/01/12 20:30:04;;;;;;;;;27.25;20.50;;;;;;;;5053456;28;8793;-84
2024/01/12 20:32:29;;;;;;;;;20.75;20.75;;;;;;;;5048462;28;11083;-86
2024/01/12 20:34:57;;;;;;;;;31.00;27.00;;;;;;;;5061202;28;8786;-84
2024/01/12 20:37:22;;;;;;;;;32.00;26.67;;;;;;;;5053762;28;8914;-84
2024/01/12 20:39:48;;;;;;;;;22.25;21.00;;;;;;;;5066304;28;11516;-85
2024/01/12 20:42:13;;;;;;;;;23.50;19.75;;;;;;;;5073737;28;8798;-83
2024/01/12 20:44:38;;;;;;;;;23.00;21.00;;;;;;;;5073699;28;9505;-79
2024/01/12 20:47:04;;;;;;;;;33.00;20.75;;;;;;;;5074657;28;8922;-86
2024/01/12 20:49:29;;;;;;;;;26.00;21.00;;;;;;;;5074465;28;9608;-84
2024/01/12 20:51:55;;;;;;;;;31.33;27.67;;;;;;;;5073970;28;8791;-82
2024/01/12 20:54:20;;;;;;;;;21.00;21.00;;;;;;;;5061835;28;8831;-80
2024/01/12 20:56:46;;;;;;;;;31.00;30.00;;;;;;;;5056845;28;8959;-79
2024/01/12 20:59:11;;;;;;;;;30.67;28.33;;;;;;;;5055421;28;9459;-77
2024/01/12 21:01:36;;;;;;;;;26.33;24.67;;;;;;;;5053648;28;8808;-77
2024/01/12 21:04:02;;;;;;;;;32.00;28.67;;;;;;;;5053633;28;8805;-79
2024/01/12 21:06:28;;;;;;;;;32.33;30.33;;;;;;;;5053553;28;8829;-78
2024/01/12 21:08:53;;;;;;;;;30.67;27.00;;;;;;;;5057898;28;8967;-79
2024/01/12 21:11:19;;;;;;;;;30.33;30.00;;;;;;;;5073708;28;8790;-79
2024/01/12 21:13:44;;;;;;;;;25.33;23.00;;;;;;;;5073301;28;8802;-80
2024/01/12 21:16:09;;;;;;;;;26.33;25.33;;;;;;;;5073303;28;8779;-79
2024/01/12 21:18:34;;;;;;;;;29.33;24.00;;;;;;;;5073231;28;8825;-80
2024/01/12 21:21:00;;;;;;;;;26.25;26.00;;;;;;;;5073333;28;8822;-80
2024/01/12 21:23:25;;;;;;;;;24.67;23.67;;;;;;;;5072987;28;8787;-77
2024/01/12 21:25:50;;;;;;;;;28.00;21.67;;;;;;;;5073685;28;8921;-78
2024/01/12 21:28:16;;;;;;;;;24.00;18.50;;;;;;;;5071656;28;8921;-78
2024/01/12 21:30:41;;;;;;;;;20.75;17.25;;;;;;;;5071626;28;8819;-80
2024/01/12 21:33:06;;;;;;;;;17.75;17.75;;;;;;;;5073024;28;8814;-81
2024/01/12 21:35:31;;;;;;;;;18.25;15.75;;;;;;;;5074593;28;8806;-80
2024/01/12 21:37:57;;;;;;;;;23.75;20.75;;;;;;;;5073200;28;9518;-80
2024/01/12 21:40:22;;;;;;;;;25.00;24.00;;;;;;;;5072604;28;8945;-81
2024/01/12 21:42:47;;;;;;;;;24.75;20.75;;;;;;;;5065855;28;8823;-79
2024/01/12 21:45:12;;;;;;;;;24.50;22.00;;;;;;;;5052511;28;8797;-78
2024/01/12 21:47:38;;;;;;;;;27.00;23.00;;;;;;;;5052310;28;8894;-78
2024/01/12 21:50:03;;;;;;;;;32.67;26.67;;;;;;;;5052281;28;8773;-79
2024/01/12 21:52:28;;;;;;;;;23.00;22.50;;;;;;;;5051973;28;9558;-79
2024/01/12 21:54:54;;;;;;;;;26.00;22.50;;;;;;;;5052138;28;8797;-79
2024/01/12 21:57:19;;;;;;;;;24.00;23.00;;;;;;;;5052056;28;9029;-79
2024/01/12 21:59:45;;;;;;;;;28.67;25.00;;;;;;;;5052019;28;8804;-79
2024/01/12 22:02:10;;;;;;;;;23.67;23.00;;;;;;;;5052362;28;8797;-79
2024/01/12 22:04:35;;;;;;;;;30.33;23.33;;;;;;;;5052034;28;8778;-81
2024/01/12 22:07:01;;;;;;;;;29.00;23.67;;;;;;;;5054095;28;8800;-79
2024/01/12 22:09:27;;;;;;;;;29.67;23.00;;;;;;;;5061370;28;8806;-80
2024/01/12 22:11:52;;;;;;;;;29.00;26.00;;;;;;;;5072716;28;8794;-79
2024/01/12 22:14:17;;;;;;;;;28.67;26.00;;;;;;;;5071655;28;11616;-80
2024/01/12 22:16:43;;;;;;;;;27.33;25.67;;;;;;;;5071604;28;9550;-80
2024/01/12 22:19:08;;;;;;;;;27.00;24.67;;;;;;;;5072719;28;8837;-79
2024/01/12 22:21:35;;;;;;;;;23.33;23.00;;;;;;;;5070275;28;8795;-79
2024/01/12 22:24:01;;;;;;;;;26.67;26.00;;;;;;;;5071121;28;8794;-77
2024/01/12 22:26:27;;;;;;;;;30.33;23.67;;;;;;;;5070994;28;8895;-78
2024/01/12 22:28:52;;;;;;;;;27.67;24.67;;;;;;;;5070936;28;8814;-77
2024/01/12 22:31:17;;;;;;;;;27.00;23.33;;;;;;;;5071393;28;8809;-78
2024/01/12 22:33:42;;;;;;;;;27.67;26.33;;;;;;;;5071406;28;8806;-78
2024/01/12 22:36:08;;;;;;;;;32.00;23.33;;;;;;;;5071171;28;9540;-79
2024/01/12 22:38:33;;;;;;;;;24.67;23.33;;;;;;;;5073396;28;8828;-80
2024/01/12 22:40:58;;;;;;;;;29.00;26.00;;;;;;;;5071199;28;8929;-80
2024/01/12 22:43:24;;;;;;;;;33.33;22.00;;;;;;;;5072757;28;8825;-79
2024/01/12 22:45:50;;;;;;;;;24.33;23.00;;;;;;;;5071218;28;8795;-78
2024/01/12 22:48:15;;;;;;;;;38.67;34.33;;;;;;;;5071470;28;8810;-79
2024/01/12 22:50:40;;;;;;;;;31.00;28.33;;;;;;;;5071225;28;9497;-79
2024/01/12 22:53:06;;;;;;;;;37.67;34.33;;;;;;;;5071773;28;8799;-78
2024/01/12 22:55:31;;;;;;;;;16.67;16.67;;;;;;;;5071279;28;8833;-80
2024/01/12 22:57:56;;;;;;;;;35.67;32.00;;;;;;;;5072061;28;8889;-84
2024/01/12 23:00:24;;;;;;;;;44.67;37.67;;;;;;;;5072264;28;8819;-83